sensor_id;sensor_type;location;lat;lon;timestamp;pressure;altitude;pressure_sealevel;temperature;humidity
7026;BME280;3554;42.132;24.786;2023-02-19T00:01:23;99514.94;;;12.38;78.42
7026;BME280;3554;42.132;24.786;2023-02-19T00:03:52;99508.97;;;12.53;78.07
7026;BME280;3554;42.132;24.786;2023-02-19T00:06:20;99526.66;;;12.68;77.21
7026;BME280;3554;42.132;24.786;2023-02-19T00:08:48;99537.09;;;12.70;76.64
7026;BME280;3554;42.132;24.786;2023-02-19T00:11:17;99524.03;;;12.68;75.89
7026;BME280;3554;42.132;24.786;2023-02-19T00:13:46;99504.78;;;12.68;75.70
7026;BME280;3554;42.132;24.786;2023-02-19T00:16:15;99518.06;;;13.02;74.15
7026;BME280;3554;42.132;24.786;2023-02-19T00:18:42;99517.38;;;13.16;72.71
7026;BME280;3554;42.132;24.786;2023-02-19T00:21:11;99518.53;;;13.10;72.57
7026;BME280;3554;42.132;24.786;2023-02-19T00:23:38;99505.84;;;13.01;73.05
7026;BME280;3554;42.132;24.786;2023-02-19T00:26:05;99500.50;;;12.84;73.61
7026;BME280;3554;42.132;24.786;2023-02-19T00:28:32;99504.91;;;12.83;73.95
7026;BME280;3554;42.132;24.786;2023-02-19T00:31:03;99517.41;;;12.97;73.75
7026;BME280;3554;42.132;24.786;2023-02-19T00:33:30;99523.31;;;13.02;73.54
7026;BME280;3554;42.132;24.786;2023-02-19T00:35:59;99503.78;;;13.08;72.65
7026;BME280;3554;42.132;24.786;2023-02-19T00:38:27;99503.50;;;13.31;71.28
7026;BME280;3554;42.132;24.786;2023-02-19T00:40:54;99503.94;;;13.05;72.39
7026;BME280;3554;42.132;24.786;2023-02-19T00:43:20;99495.53;;;13.15;71.93
7026;BME280;3554;42.132;24.786;2023-02-19T00:45:47;99486.16;;;12.91;73.42
7026;BME280;3554;42.132;24.786;2023-02-19T00:48:14;99479.75;;;12.79;74.48
7026;BME280;3554;42.132;24.786;2023-02-19T00:50:41;99481.22;;;12.85;74.53
7026;BME280;3554;42.132;24.786;2023-02-19T00:53:07;99476.69;;;12.70;75.28
7026;BME280;3554;42.132;24.786;2023-02-19T00:55:36;99483.22;;;12.61;76.22
7026;BME280;3554;42.132;24.786;2023-02-19T00:58:02;99481.88;;;12.16;79.21
7026;BME280;3554;42.132;24.786;2023-02-19T01:00:29;99486.59;;;12.08;80.44
7026;BME280;3554;42.132;24.786;2023-02-19T01:02:57;99476.59;;;11.77;83.39
7026;BME280;3554;42.132;24.786;2023-02-19T01:05:24;99483.72;;;11.33;88.06
7026;BME280;3554;42.132;24.786;2023-02-19T01:07:51;99477.47;;;11.36;89.70
7026;BME280;3554;42.132;24.786;2023-02-19T01:10:18;99473.97;;;11.57;88.92
7026;BME280;3554;42.132;24.786;2023-02-19T01:12:46;99471.25;;;11.80;86.27
7026;BME280;3554;42.132;24.786;2023-02-19T01:15:13;99466.34;;;11.91;85.33
7026;BME280;3554;42.132;24.786;2023-02-19T01:17:40;99464.59;;;11.92;85.02
7026;BME280;3554;42.132;24.786;2023-02-19T01:20:07;99457.78;;;11.88;85.81
7026;BME280;3554;42.132;24.786;2023-02-19T01:22:34;99454.09;;;11.73;86.50
7026;BME280;3554;42.132;24.786;2023-02-19T01:25:01;99454.50;;;11.42;90.26
7026;BME280;3554;42.132;24.786;2023-02-19T01:27:27;99453.31;;;11.29;91.85
7026;BME280;3554;42.132;24.786;2023-02-19T01:29:56;99454.97;;;11.32;91.82
7026;BME280;3554;42.132;24.786;2023-02-19T01:32:22;99472.78;;;11.44;92.38
7026;BME280;3554;42.132;24.786;2023-02-19T01:34:49;99464.94;;;11.64;90.38
7026;BME280;3554;42.132;24.786;2023-02-19T01:37:16;99473.34;;;11.72;89.14
7026;BME280;3554;42.132;24.786;2023-02-19T01:39:43;99479.34;;;11.54;90.91
7026;BME280;3554;42.132;24.786;2023-02-19T01:42:12;99442.38;;;11.40;92.21
7026;BME280;3554;42.132;24.786;2023-02-19T01:45:14;99463.41;;;11.38;92.95
7026;BME280;3554;42.132;24.786;2023-02-19T01:47:44;99458.38;;;11.54;91.45
7026;BME280;3554;42.132;24.786;2023-02-19T01:50:11;99455.50;;;11.60;90.68
7026;BME280;3554;42.132;24.786;2023-02-19T01:52:38;99458.44;;;11.52;90.66
7026;BME280;3554;42.132;24.786;2023-02-19T01:55:06;99432.34;;;11.09;93.25
7026;BME280;3554;42.132;24.786;2023-02-19T01:57:43;99446.69;;;11.21;92.73
7026;BME280;3554;42.132;24.786;2023-02-19T02:00:15;99433.59;;;11.21;93.39
7026;BME280;3554;42.132;24.786;2023-02-19T02:02:45;99438.28;;;11.13;93.71
7026;BME280;3554;42.132;24.786;2023-02-19T02:05:19;99424.75;;;11.03;94.43
7026;BME280;3554;42.132;24.786;2023-02-19T02:07:48;99434.72;;;11.15;94.55
7026;BME280;3554;42.132;24.786;2023-02-19T02:10:33;99449.47;;;11.18;94.07
7026;BME280;3554;42.132;24.786;2023-02-19T02:12:59;99452.81;;;11.21;94.29
7026;BME280;3554;42.132;24.786;2023-02-19T02:15:35;99452.72;;;11.23;94.86
7026;BME280;3554;42.132;24.786;2023-02-19T02:18:14;99449.91;;;11.27;94.54
7026;BME280;3554;42.132;24.786;2023-02-19T02:20:57;99431.94;;;10.98;94.69
7026;BME280;3554;42.132;24.786;2023-02-19T02:23:37;99449.47;;;11.18;94.66
7026;BME280;3554;42.132;24.786;2023-02-19T02:26:29;99448.66;;;11.16;94.13
7026;BME280;3554;42.132;24.786;2023-02-19T02:29:28;99455.53;;;11.18;93.58
7026;BME280;3554;42.132;24.786;2023-02-19T02:32:02;99464.91;;;11.24;94.27
7026;BME280;3554;42.132;24.786;2023-02-19T02:34:37;99471.44;;;11.14;94.71
7026;BME280;3554;42.132;24.786;2023-02-19T02:37:08;99480.03;;;11.17;95.41
7026;BME280;3554;42.132;24.786;2023-02-19T02:39:35;99469.88;;;11.10;94.98
7026;BME280;3554;42.132;24.786;2023-02-19T02:42:04;99463.22;;;11.23;93.27
7026;BME280;3554;42.132;24.786;2023-02-19T02:44:48;99470.63;;;11.33;91.48
7026;BME280;3554;42.132;24.786;2023-02-19T02:47:33;99471.34;;;11.37;91.37
7026;BME280;3554;42.132;24.786;2023-02-19T02:50:12;99469.69;;;11.34;91.07
7026;BME280;3554;42.132;24.786;2023-02-19T02:52:42;99465.81;;;11.43;90.57
7026;BME280;3554;42.132;24.786;2023-02-19T02:55:30;99454.69;;;11.38;90.18
7026;BME280;3554;42.132;24.786;2023-02-19T02:57:58;99467.69;;;11.41;90.04
7026;BME280;3554;42.132;24.786;2023-02-19T03:00:25;99478.03;;;11.44;89.50
7026;BME280;3554;42.132;24.786;2023-02-19T03:03:16;99488.31;;;11.48;90.13
7026;BME280;3554;42.132;24.786;2023-02-19T03:05:45;99485.31;;;11.37;91.26
7026;BME280;3554;42.132;24.786;2023-02-19T03:08:23;99502.97;;;11.32;92.04
7026;BME280;3554;42.132;24.786;2023-02-19T03:10:53;99507.56;;;11.27;92.05
7026;BME280;3554;42.132;24.786;2023-02-19T03:13:27;99507.81;;;11.21;93.15
7026;BME280;3554;42.132;24.786;2023-02-19T03:16:18;99473.66;;;11.03;93.23
7026;BME280;3554;42.132;24.786;2023-02-19T03:19:07;99494.47;;;11.06;93.92
7026;BME280;3554;42.132;24.786;2023-02-19T03:21:51;99475.47;;;11.01;93.64
7026;BME280;3554;42.132;24.786;2023-02-19T03:24:24;99484.63;;;11.12;93.05
7026;BME280;3554;42.132;24.786;2023-02-19T03:27:11;99496.47;;;11.21;93.91
7026;BME280;3554;42.132;24.786;2023-02-19T03:29:40;99503.91;;;11.10;93.93
7026;BME280;3554;42.132;24.786;2023-02-19T03:32:14;99497.41;;;10.98;95.29
7026;BME280;3554;42.132;24.786;2023-02-19T03:34:47;99498.75;;;10.87;96.38
7026;BME280;3554;42.132;24.786;2023-02-19T03:37:20;99504.28;;;11.01;96.11
7026;BME280;3554;42.132;24.786;2023-02-19T03:39:50;99480.56;;;10.84;95.94
7026;BME280;3554;42.132;24.786;2023-02-19T03:42:27;99494.53;;;11.04;94.84
7026;BME280;3554;42.132;24.786;2023-02-19T03:45:13;99505.00;;;11.04;94.98
7026;BME280;3554;42.132;24.786;2023-02-19T03:47:47;99518.91;;;11.06;94.53
7026;BME280;3554;42.132;24.786;2023-02-19T03:50:18;99502.88;;;10.92;95.31
7026;BME280;3554;42.132;24.786;2023-02-19T03:52:54;99516.09;;;11.11;94.55
7026;BME280;3554;42.132;24.786;2023-02-19T03:55:27;99519.63;;;11.10;94.39
7026;BME280;3554;42.132;24.786;2023-02-19T03:57:59;99520.28;;;11.15;93.20
7026;BME280;3554;42.132;24.786;2023-02-19T04:00:32;99517.56;;;11.18;92.52
7026;BME280;3554;42.132;24.786;2023-02-19T04:03:08;99524.38;;;11.22;91.56
7026;BME280;3554;42.132;24.786;2023-02-19T04:05:43;99524.06;;;11.29;90.98
7026;BME280;3554;42.132;24.786;2023-02-19T04:08:15;99510.00;;;11.32;89.95
7026;BME280;3554;42.132;24.786;2023-02-19T04:10:44;99531.34;;;11.43;89.36
7026;BME280;3554;42.132;24.786;2023-02-19T04:13:16;99537.38;;;11.45;89.37
7026;BME280;3554;42.132;24.786;2023-02-19T04:15:46;99540.94;;;11.44;89.05
7026;BME280;3554;42.132;24.786;2023-02-19T04:18:17;99540.56;;;11.53;88.73
7026;BME280;3554;42.132;24.786;2023-02-19T04:20:46;99544.22;;;11.49;89.00
7026;BME280;3554;42.132;24.786;2023-02-19T04:23:16;99524.16;;;11.48;87.48
7026;BME280;3554;42.132;24.786;2023-02-19T04:25:46;99519.91;;;11.45;87.35
7026;BME280;3554;42.132;24.786;2023-02-19T04:28:14;99544.28;;;11.69;86.97
7026;BME280;3554;42.132;24.786;2023-02-19T04:30:42;99545.66;;;11.56;87.29
7026;BME280;3554;42.132;24.786;2023-02-19T04:33:09;99533.41;;;11.56;87.21
7026;BME280;3554;42.132;24.786;2023-02-19T04:35:36;99534.31;;;11.55;87.04
7026;BME280;3554;42.132;24.786;2023-02-19T04:38:04;99537.63;;;11.60;86.79
7026;BME280;3554;42.132;24.786;2023-02-19T04:40:31;99534.75;;;11.66;85.65
7026;BME280;3554;42.132;24.786;2023-02-19T04:42:58;99531.28;;;11.66;85.87
7026;BME280;3554;42.132;24.786;2023-02-19T04:45:25;99536.19;;;11.73;84.98
7026;BME280;3554;42.132;24.786;2023-02-19T04:47:51;99534.28;;;11.77;85.02
7026;BME280;3554;42.132;24.786;2023-02-19T04:50:18;99541.34;;;11.76;85.03
7026;BME280;3554;42.132;24.786;2023-02-19T04:52:46;99541.13;;;11.81;84.22
7026;BME280;3554;42.132;24.786;2023-02-19T04:55:14;99547.94;;;11.85;83.78
7026;BME280;3554;42.132;24.786;2023-02-19T04:57:41;99550.44;;;11.88;83.94
7026;BME280;3554;42.132;24.786;2023-02-19T05:00:09;99561.72;;;11.90;82.93
7026;BME280;3554;42.132;24.786;2023-02-19T05:02:36;99561.72;;;11.90;82.87
7026;BME280;3554;42.132;24.786;2023-02-19T05:05:02;99568.41;;;11.97;82.92
7026;BME280;3554;42.132;24.786;2023-02-19T05:07:29;99554.25;;;12.01;82.08
7026;BME280;3554;42.132;24.786;2023-02-19T05:09:56;99559.75;;;11.95;81.93
7026;BME280;3554;42.132;24.786;2023-02-19T05:12:25;99561.47;;;11.96;82.60
7026;BME280;3554;42.132;24.786;2023-02-19T05:14:52;99558.88;;;11.95;82.24
7026;BME280;3554;42.132;24.786;2023-02-19T05:17:18;99567.53;;;11.97;82.65
7026;BME280;3554;42.132;24.786;2023-02-19T05:19:45;99566.75;;;11.95;82.43
7026;BME280;3554;42.132;24.786;2023-02-19T05:22:12;99568.97;;;12.04;81.91
7026;BME280;3554;42.132;24.786;2023-02-19T05:24:39;99564.59;;;12.04;81.02
7026;BME280;3554;42.132;24.786;2023-02-19T05:27:06;99556.22;;;11.96;81.59
7026;BME280;3554;42.132;24.786;2023-02-19T05:29:34;99581.59;;;12.16;80.71
7026;BME280;3554;42.132;24.786;2023-02-19T05:32:01;99578.09;;;12.15;80.47
7026;BME280;3554;42.132;24.786;2023-02-19T05:34:27;99585.03;;;12.16;79.95
7026;BME280;3554;42.132;24.786;2023-02-19T05:36:54;99596.91;;;12.25;79.36
7026;BME280;3554;42.132;24.786;2023-02-19T05:39:21;99600.00;;;12.34;78.94
7026;BME280;3554;42.132;24.786;2023-02-19T05:41:47;99607.59;;;12.40;78.54
7026;BME280;3554;42.132;24.786;2023-02-19T05:44:14;99617.97;;;12.43;78.39
7026;BME280;3554;42.132;24.786;2023-02-19T05:46:42;99617.56;;;12.52;78.08
7026;BME280;3554;42.132;24.786;2023-02-19T05:49:09;99609.81;;;12.49;77.58
7026;BME280;3554;42.132;24.786;2023-02-19T05:51:36;99615.50;;;12.59;77.24
7026;BME280;3554;42.132;24.786;2023-02-19T05:54:03;99619.38;;;12.70;76.26
7026;BME280;3554;42.132;24.786;2023-02-19T05:56:32;99621.50;;;12.81;76.22
7026;BME280;3554;42.132;24.786;2023-02-19T05:59:00;99625.75;;;12.83;74.37
7026;BME280;3554;42.132;24.786;2023-02-19T06:01:28;99637.19;;;13.03;72.70
7026;BME280;3554;42.132;24.786;2023-02-19T06:03:57;99634.84;;;13.15;71.60
7026;BME280;3554;42.132;24.786;2023-02-19T06:06:24;99620.75;;;13.16;69.91
7026;BME280;3554;42.132;24.786;2023-02-19T06:08:51;99652.69;;;13.44;69.36
7026;BME280;3554;42.132;24.786;2023-02-19T06:11:19;99666.69;;;13.63;68.02
7026;BME280;3554;42.132;24.786;2023-02-19T06:13:46;99665.31;;;13.73;67.75
7026;BME280;3554;42.132;24.786;2023-02-19T06:16:15;99659.75;;;13.79;67.34
7026;BME280;3554;42.132;24.786;2023-02-19T06:18:42;99647.59;;;13.77;66.59
7026;BME280;3554;42.132;24.786;2023-02-19T06:21:11;99666.03;;;13.94;65.96
7026;BME280;3554;42.132;24.786;2023-02-19T06:23:38;99669.28;;;13.99;66.01
7026;BME280;3554;42.132;24.786;2023-02-19T06:26:09;99668.13;;;14.05;64.82
7026;BME280;3554;42.132;24.786;2023-02-19T06:28:37;99664.81;;;14.18;64.31
7026;BME280;3554;42.132;24.786;2023-02-19T06:31:04;99669.84;;;14.23;63.73
7026;BME280;3554;42.132;24.786;2023-02-19T06:33:31;99676.16;;;14.37;63.11
7026;BME280;3554;42.132;24.786;2023-02-19T06:36:00;99660.50;;;14.34;62.67
7026;BME280;3554;42.132;24.786;2023-02-19T06:38:29;99661.81;;;14.43;62.40
7026;BME280;3554;42.132;24.786;2023-02-19T06:40:59;99650.03;;;14.50;61.85
7026;BME280;3554;42.132;24.786;2023-02-19T06:43:27;99677.09;;;14.69;61.39
7026;BME280;3554;42.132;24.786;2023-02-19T06:45:56;99676.97;;;14.72;61.12
7026;BME280;3554;42.132;24.786;2023-02-19T06:48:24;99683.84;;;14.91;60.00
7026;BME280;3554;42.132;24.786;2023-02-19T06:50:51;99690.47;;;14.98;60.33
7026;BME280;3554;42.132;24.786;2023-02-19T06:53:18;99675.00;;;15.08;59.03
7026;BME280;3554;42.132;24.786;2023-02-19T06:55:55;99687.59;;;15.19;58.98
7026;BME280;3554;42.132;24.786;2023-02-19T06:58:22;99698.00;;;15.22;59.04
7026;BME280;3554;42.132;24.786;2023-02-19T07:00:49;99707.19;;;15.30;58.99
7026;BME280;3554;42.132;24.786;2023-02-19T07:03:16;99700.97;;;15.31;59.03
7026;BME280;3554;42.132;24.786;2023-02-19T07:05:42;99697.41;;;15.32;58.59
7026;BME280;3554;42.132;24.786;2023-02-19T07:08:09;99692.81;;;15.36;58.79
7026;BME280;3554;42.132;24.786;2023-02-19T07:10:36;99700.34;;;15.43;57.92
7026;BME280;3554;42.132;24.786;2023-02-19T07:13:04;99704.09;;;15.55;57.11
7026;BME280;3554;42.132;24.786;2023-02-19T07:15:31;99699.69;;;15.55;57.21
7026;BME280;3554;42.132;24.786;2023-02-19T07:17:58;99707.41;;;15.58;57.50
7026;BME280;3554;42.132;24.786;2023-02-19T07:20:25;99712.09;;;15.69;56.29
7026;BME280;3554;42.132;24.786;2023-02-19T07:22:51;99711.75;;;15.75;56.24
7026;BME280;3554;42.132;24.786;2023-02-19T07:25:18;99710.47;;;15.82;56.45
7026;BME280;3554;42.132;24.786;2023-02-19T07:27:46;99710.88;;;15.90;55.49
7026;BME280;3554;42.132;24.786;2023-02-19T07:30:14;99702.78;;;16.08;55.06
7026;BME280;3554;42.132;24.786;2023-02-19T07:32:41;99712.91;;;16.16;54.97
7026;BME280;3554;42.132;24.786;2023-02-19T07:35:10;99709.69;;;16.25;54.35
7026;BME280;3554;42.132;24.786;2023-02-19T07:37:36;99707.63;;;16.16;53.98
7026;BME280;3554;42.132;24.786;2023-02-19T07:40:04;99688.72;;;16.08;54.43
7026;BME280;3554;42.132;24.786;2023-02-19T07:42:31;99702.72;;;16.24;54.61
7026;BME280;3554;42.132;24.786;2023-02-19T07:44:58;99704.50;;;16.39;54.54
7026;BME280;3554;42.132;24.786;2023-02-19T07:47:27;99701.66;;;16.42;53.81
7026;BME280;3554;42.132;24.786;2023-02-19T07:49:54;99705.06;;;16.44;53.67
7026;BME280;3554;42.132;24.786;2023-02-19T07:52:21;99700.38;;;16.49;53.77
7026;BME280;3554;42.132;24.786;2023-02-19T07:54:47;99715.13;;;16.53;53.96
7026;BME280;3554;42.132;24.786;2023-02-19T07:57:14;99693.78;;;16.56;54.01
7026;BME280;3554;42.132;24.786;2023-02-19T07:59:41;99708.78;;;16.56;53.95
7026;BME280;3554;42.132;24.786;2023-02-19T08:02:14;99702.84;;;16.66;53.87
7026;BME280;3554;42.132;24.786;2023-02-19T08:05:00;99699.56;;;16.63;53.62
7026;BME280;3554;42.132;24.786;2023-02-19T08:07:30;99693.16;;;16.67;53.92
7026;BME280;3554;42.132;24.786;2023-02-19T08:09:57;99700.31;;;16.79;54.07
7026;BME280;3554;42.132;24.786;2023-02-19T08:12:38;99704.97;;;16.89;53.21
7026;BME280;3554;42.132;24.786;2023-02-19T08:15:22;99709.22;;;17.06;53.12
7026;BME280;3554;42.132;24.786;2023-02-19T08:17:49;99704.78;;;17.21;52.73
7026;BME280;3554;42.132;24.786;2023-02-19T08:20:17;99703.06;;;17.20;52.60
7026;BME280;3554;42.132;24.786;2023-02-19T08:22:44;99700.91;;;17.26;53.04
7026;BME280;3554;42.132;24.786;2023-02-19T08:25:10;99691.19;;;17.12;53.05
7026;BME280;3554;42.132;24.786;2023-02-19T08:27:37;99699.13;;;17.12;53.16
7026;BME280;3554;42.132;24.786;2023-02-19T08:30:05;99697.88;;;17.18;52.93
7026;BME280;3554;42.132;24.786;2023-02-19T08:32:33;99690.06;;;17.17;52.88
7026;BME280;3554;42.132;24.786;2023-02-19T08:34:59;99687.03;;;17.23;53.21
7026;BME280;3554;42.132;24.786;2023-02-19T08:37:27;99680.41;;;17.30;52.88
7026;BME280;3554;42.132;24.786;2023-02-19T08:39:54;99683.88;;;17.44;52.86
7026;BME280;3554;42.132;24.786;2023-02-19T08:42:21;99680.88;;;17.50;52.23
7026;BME280;3554;42.132;24.786;2023-02-19T08:44:48;99680.22;;;17.47;52.19
7026;BME280;3554;42.132;24.786;2023-02-19T08:47:15;99679.84;;;17.53;52.66
7026;BME280;3554;42.132;24.786;2023-02-19T08:49:42;99683.03;;;17.58;52.40
7026;BME280;3554;42.132;24.786;2023-02-19T08:52:09;99678.72;;;17.69;52.69
7026;BME280;3554;42.132;24.786;2023-02-19T08:54:37;99675.59;;;17.77;52.84
7026;BME280;3554;42.132;24.786;2023-02-19T08:57:04;99683.50;;;17.91;52.10
7026;BME280;3554;42.132;24.786;2023-02-19T08:59:31;99676.94;;;17.96;52.32
7026;BME280;3554;42.132;24.786;2023-02-19T09:01:58;99668.19;;;17.82;52.17
7026;BME280;3554;42.132;24.786;2023-02-19T09:04:24;99665.69;;;17.93;51.81
7026;BME280;3554;42.132;24.786;2023-02-19T09:06:51;99674.84;;;18.01;52.11
7026;BME280;3554;42.132;24.786;2023-02-19T09:09:18;99670.22;;;18.17;52.03
7026;BME280;3554;42.132;24.786;2023-02-19T09:11:46;99623.69;;;18.01;52.36
7026;BME280;3554;42.132;24.786;2023-02-19T09:14:13;99662.28;;;18.17;52.13
7026;BME280;3554;42.132;24.786;2023-02-19T09:16:40;99652.78;;;18.28;53.06
7026;BME280;3554;42.132;24.786;2023-02-19T09:19:06;99652.25;;;18.35;52.02
7026;BME280;3554;42.132;24.786;2023-02-19T09:21:33;99653.94;;;18.36;51.90
7026;BME280;3554;42.132;24.786;2023-02-19T09:24:00;99655.28;;;18.56;51.75
7026;BME280;3554;42.132;24.786;2023-02-19T09:26:27;99652.09;;;18.63;51.70
7026;BME280;3554;42.132;24.786;2023-02-19T09:28:55;99651.03;;;18.66;51.38
7026;BME280;3554;42.132;24.786;2023-02-19T09:31:21;99648.72;;;18.74;51.58
7026;BME280;3554;42.132;24.786;2023-02-19T09:33:48;99644.66;;;18.81;51.35
7026;BME280;3554;42.132;24.786;2023-02-19T09:36:15;99622.72;;;18.79;51.17
7026;BME280;3554;42.132;24.786;2023-02-19T09:38:43;99631.91;;;18.98;50.83
7026;BME280;3554;42.132;24.786;2023-02-19T09:41:17;99615.38;;;18.82;51.68
7026;BME280;3554;42.132;24.786;2023-02-19T09:43:45;99625.56;;;19.01;51.16
7026;BME280;3554;42.132;24.786;2023-02-19T09:46:23;99629.78;;;19.03;50.22
7026;BME280;3554;42.132;24.786;2023-02-19T09:48:51;99622.03;;;19.13;49.46
7026;BME280;3554;42.132;24.786;2023-02-19T09:51:19;99622.03;;;19.13;49.11
7026;BME280;3554;42.132;24.786;2023-02-19T09:53:48;99616.81;;;19.24;49.13
7026;BME280;3554;42.132;24.786;2023-02-19T09:56:16;99605.09;;;19.39;48.12
7026;BME280;3554;42.132;24.786;2023-02-19T09:58:46;99557.03;;;19.18;46.71
7026;BME280;3554;42.132;24.786;2023-02-19T10:01:14;99600.78;;;19.49;47.13
7026;BME280;3554;42.132;24.786;2023-02-19T10:03:45;99581.22;;;19.63;46.53
7026;BME280;3554;42.132;24.786;2023-02-19T10:06:17;99592.72;;;19.74;45.84
7026;BME280;3554;42.132;24.786;2023-02-19T10:08:47;99582.94;;;19.75;45.72
7026;BME280;3554;42.132;24.786;2023-02-19T10:11:15;99576.63;;;19.65;45.76
7026;BME280;3554;42.132;24.786;2023-02-19T10:13:44;99585.03;;;19.82;45.35
7026;BME280;3554;42.132;24.786;2023-02-19T10:16:16;99583.25;;;19.83;45.58
7026;BME280;3554;42.132;24.786;2023-02-19T10:18:46;99570.59;;;19.97;46.14
7026;BME280;3554;42.132;24.786;2023-02-19T10:21:17;99569.34;;;19.90;46.05
7026;BME280;3554;42.132;24.786;2023-02-19T10:23:47;99567.75;;;19.77;46.11
7026;BME280;3554;42.132;24.786;2023-02-19T10:26:14;99562.66;;;19.74;46.58
7026;BME280;3554;42.132;24.786;2023-02-19T10:28:41;99551.84;;;19.88;46.19
7026;BME280;3554;42.132;24.786;2023-02-19T10:31:15;99539.91;;;19.93;46.27
7026;BME280;3554;42.132;24.786;2023-02-19T10:33:49;99533.03;;;20.02;45.88
7026;BME280;3554;42.132;24.786;2023-02-19T10:36:24;99537.88;;;20.08;45.96
7026;BME280;3554;42.132;24.786;2023-02-19T10:38:52;99526.47;;;20.18;45.57
7026;BME280;3554;42.132;24.786;2023-02-19T10:41:21;99527.63;;;20.14;44.56
7026;BME280;3554;42.132;24.786;2023-02-19T10:43:53;99518.50;;;20.30;44.67
7026;BME280;3554;42.132;24.786;2023-02-19T10:46:23;99513.94;;;20.54;44.51
7026;BME280;3554;42.132;24.786;2023-02-19T10:48:54;99513.56;;;20.58;44.71
7026;BME280;3554;42.132;24.786;2023-02-19T10:51:30;99501.44;;;20.65;45.52
7026;BME280;3554;42.132;24.786;2023-02-19T10:54:04;99481.16;;;20.64;43.21
7026;BME280;3554;42.132;24.786;2023-02-19T10:56:31;99485.28;;;20.68;43.36
7026;BME280;3554;42.132;24.786;2023-02-19T10:59:17;99476.56;;;20.55;43.28
7026;BME280;3554;42.132;24.786;2023-02-19T11:01:53;99488.28;;;20.64;43.28
7026;BME280;3554;42.132;24.786;2023-02-19T11:04:21;99477.88;;;20.50;42.52
7026;BME280;3554;42.132;24.786;2023-02-19T11:06:48;99474.84;;;20.54;43.64
7026;BME280;3554;42.132;24.786;2023-02-19T11:09:23;99469.78;;;20.73;43.76
7026;BME280;3554;42.132;24.786;2023-02-19T11:11:52;99468.16;;;20.93;43.24
7026;BME280;3554;42.132;24.786;2023-02-19T11:14:22;99469.78;;;20.73;42.20
7026;BME280;3554;42.132;24.786;2023-02-19T11:16:51;99463.59;;;20.73;42.47
7026;BME280;3554;42.132;24.786;2023-02-19T11:19:27;99414.44;;;20.45;42.02
7026;BME280;3554;42.132;24.786;2023-02-19T11:21:55;99457.41;;;20.72;42.42
7026;BME280;3554;42.132;24.786;2023-02-19T11:24:27;99458.16;;;20.74;42.35
7026;BME280;3554;42.132;24.786;2023-02-19T11:26:56;99454.75;;;20.72;42.65
7026;BME280;3554;42.132;24.786;2023-02-19T11:29:24;99455.47;;;20.85;42.73
7026;BME280;3554;42.132;24.786;2023-02-19T11:31:53;99442.16;;;20.96;42.94
7026;BME280;3554;42.132;24.786;2023-02-19T11:34:28;99445.88;;;20.94;42.58
7026;BME280;3554;42.132;24.786;2023-02-19T11:37:11;99440.22;;;20.98;42.41
7026;BME280;3554;42.132;24.786;2023-02-19T11:39:39;99433.94;;;20.88;41.10
7026;BME280;3554;42.132;24.786;2023-02-19T11:42:39;99427.13;;;20.95;41.59
7026;BME280;3554;42.132;24.786;2023-02-19T11:45:22;99429.91;;;20.94;41.75
7026;BME280;3554;42.132;24.786;2023-02-19T11:48:16;99429.13;;;20.82;41.61
7026;BME280;3554;42.132;24.786;2023-02-19T11:51:03;99423.16;;;20.90;41.56
7026;BME280;3554;42.132;24.786;2023-02-19T11:53:32;99416.28;;;20.87;41.40
7026;BME280;3554;42.132;24.786;2023-02-19T11:56:13;99418.41;;;20.93;41.60
7026;BME280;3554;42.132;24.786;2023-02-19T11:58:56;99419.41;;;21.03;41.28
7026;BME280;3554;42.132;24.786;2023-02-19T12:01:34;99418.94;;;20.87;41.43
7026;BME280;3554;42.132;24.786;2023-02-19T12:04:37;99407.56;;;20.85;41.41
7026;BME280;3554;42.132;24.786;2023-02-19T12:07:18;99410.97;;;20.87;41.75
7026;BME280;3554;42.132;24.786;2023-02-19T12:10:02;99372.72;;;20.99;41.21
7026;BME280;3554;42.132;24.786;2023-02-19T12:12:40;99393.22;;;21.19;41.27
7026;BME280;3554;42.132;24.786;2023-02-19T12:15:28;99386.13;;;21.29;41.36
7026;BME280;3554;42.132;24.786;2023-02-19T12:18:12;99386.91;;;21.20;40.96
7026;BME280;3554;42.132;24.786;2023-02-19T12:20:48;99381.78;;;21.28;41.08
7026;BME280;3554;42.132;24.786;2023-02-19T12:23:44;99339.28;;;21.06;40.82
7026;BME280;3554;42.132;24.786;2023-02-19T12:26:21;99351.09;;;21.13;40.56
7026;BME280;3554;42.132;24.786;2023-02-19T12:29:02;99372.09;;;20.64;41.59
7026;BME280;3554;42.132;24.786;2023-02-19T12:31:48;99360.56;;;20.75;41.10
7026;BME280;3554;42.132;24.786;2023-02-19T12:34:43;99356.97;;;20.96;42.16
7026;BME280;3554;42.132;24.786;2023-02-19T12:37:23;99360.09;;;21.12;41.70
7026;BME280;3554;42.132;24.786;2023-02-19T12:40:00;99346.38;;;21.17;41.25
7026;BME280;3554;42.132;24.786;2023-02-19T12:42:47;99344.16;;;21.01;42.04
7026;BME280;3554;42.132;24.786;2023-02-19T12:45:23;99327.19;;;21.02;41.75
7026;BME280;3554;42.132;24.786;2023-02-19T12:47:57;99330.03;;;21.21;41.54
7026;BME280;3554;42.132;24.786;2023-02-19T12:50:26;99339.22;;;21.38;41.02
7026;BME280;3554;42.132;24.786;2023-02-19T12:52:57;99329.75;;;21.24;41.01
7026;BME280;3554;42.132;24.786;2023-02-19T12:55:30;99319.97;;;21.25;41.07
7026;BME280;3554;42.132;24.786;2023-02-19T12:58:01;99314.63;;;21.25;41.30
7026;BME280;3554;42.132;24.786;2023-02-19T13:00:32;99312.22;;;21.22;40.63
7026;BME280;3554;42.132;24.786;2023-02-19T13:03:06;99294.72;;;21.29;40.47
7026;BME280;3554;42.132;24.786;2023-02-19T13:05:41;99287.59;;;21.29;41.24
7026;BME280;3554;42.132;24.786;2023-02-19T13:08:15;99305.31;;;21.40;40.64
7026;BME280;3554;42.132;24.786;2023-02-19T13:10:52;99301.34;;;21.35;40.26
7026;BME280;3554;42.132;24.786;2023-02-19T13:13:23;99302.66;;;21.40;40.25
7026;BME280;3554;42.132;24.786;2023-02-19T13:15:55;99287.00;;;21.26;40.91
7026;BME280;3554;42.132;24.786;2023-02-19T13:18:29;99292.59;;;21.44;40.46
7026;BME280;3554;42.132;24.786;2023-02-19T13:20:58;99287.44;;;21.52;40.13
7026;BME280;3554;42.132;24.786;2023-02-19T13:23:27;99240.53;;;21.09;40.01
7026;BME280;3554;42.132;24.786;2023-02-19T13:26:31;99273.56;;;21.27;40.23
7026;BME280;3554;42.132;24.786;2023-02-19T13:29:15;99268.78;;;21.01;40.94
7026;BME280;3554;42.132;24.786;2023-02-19T13:32:03;99267.66;;;21.24;41.23